Time;durP1;ratioP1;P1;durP2;ratioP2;P2;SDS_P1;SDS_P2;PMS_P1;PMS_P2;Temp;Humidity;BMP_temperature;BMP_pressure;BME280_temperature;BME280_humidity;BME280_pressure;Samples;Min_cycle;Max_cycle;Signal;HPM_P1;HPM_P2
2023/10/31 00:01:55;;;;;;;55.65;12.25;;;10.70;99.90;;;;;;4966327;23;20049;-77
2023/10/31 00:04:21;;;;;;;43.58;11.30;;;11.10;99.90;;;;;;5004527;28;20738;-78
2023/10/31 00:06:46;;;;;;;70.13;14.05;;;10.70;99.90;;;;;;4987654;28;20053;-79
2023/10/31 00:09:12;;;;;;;44.85;13.57;;;10.70;99.90;;;;;;4992445;28;20103;-78
2023/10/31 00:11:41;;;;;;;79.95;17.40;;;10.70;99.90;;;;;;5008417;28;20049;-76
2023/10/31 00:14:07;;;;;;;75.45;17.77;;;10.70;99.90;;;;;;4996986;28;20573;-77
2023/10/31 00:16:32;;;;;;;58.05;17.15;;;10.70;99.90;;;;;;4996308;28;20080;-76
2023/10/31 00:18:58;;;;;;;77.53;19.67;;;10.70;99.90;;;;;;4995792;28;20519;-77
2023/10/31 00:21:24;;;;;;;69.25;18.00;;;10.70;99.90;;;;;;4995088;28;20057;-76
2023/10/31 00:23:50;;;;;;;70.75;17.95;;;10.70;99.90;;;;;;4994007;28;20088;-77
2023/10/31 00:26:16;;;;;;;87.82;19.17;;;10.70;99.90;;;;;;4989932;28;20091;-78
2023/10/31 00:28:42;;;;;;;68.85;15.90;;;10.60;99.90;;;;;;4992578;28;20061;-77
2023/10/31 00:31:08;;;;;;;57.65;15.80;;;10.70;99.90;;;;;;4983660;28;20065;-79
2023/10/31 00:33:34;;;;;;;66.10;16.70;;;10.60;99.90;;;;;;4973603;28;20474;-77
2023/10/31 00:36:01;;;;;;;74.35;15.27;;;10.60;99.90;;;;;;5000691;28;20060;-79
2023/10/31 00:38:29;;;;;;;63.97;15.32;;;12.80;99.90;;;;;;4996645;28;20060;-78
2023/10/31 00:40:55;;;;;;;51.25;14.93;;;10.60;99.90;;;;;;5008251;28;20187;-77
2023/10/31 00:43:23;;;;;;;72.72;16.52;;;10.60;99.90;;;;;;4987350;23;20050;-76
2023/10/31 00:45:49;;;;;;;49.65;14.77;;;10.60;99.90;;;;;;4993194;28;20061;-78
2023/10/31 00:48:15;;;;;;;47.33;14.65;;;10.60;99.90;;;;;;4970950;28;20664;-76
2023/10/31 00:50:41;;;;;;;90.45;17.25;;;10.60;99.90;;;;;;4972191;28;20109;-76
2023/10/31 00:53:08;;;;;;;73.55;16.42;;;10.60;99.90;;;;;;4974582;28;20061;-77
2023/10/31 00:55:33;;;;;;;64.75;15.27;;;10.60;99.90;;;;;;4972915;28;20522;-77
2023/10/31 00:58:02;;;;;;;113.40;19.33;;;10.60;99.90;;;;;;4974911;28;20058;-78
2023/10/31 01:00:27;;;;;;;162.82;20.88;;;10.60;99.90;;;;;;4994066;28;20519;-77
2023/10/31 01:02:53;;;;;;;88.78;16.73;;;10.60;99.90;;;;;;4980615;28;20090;-76
2023/10/31 01:05:19;;;;;;;76.00;16.67;;;10.60;99.90;;;;;;4972826;28;20092;-76
2023/10/31 01:07:45;;;;;;;123.45;19.17;;;10.60;99.90;;;;;;4968393;28;20098;-77
2023/10/31 01:10:10;;;;;;;192.75;21.13;;;10.70;99.90;;;;;;4975944;28;20049;-80
2023/10/31 01:12:37;;;;;;;148.23;19.98;;;10.90;99.90;;;;;;4964783;28;20528;-77
2023/10/31 01:15:03;;;;;;;153.48;23.42;;;10.70;99.90;;;;;;4980312;28;20116;-79
2023/10/31 01:17:28;;;;;;;159.70;21.52;;;10.70;99.90;;;;;;4982714;28;20128;-82
2023/10/31 01:19:57;;;;;;;53.97;10.93;;;10.70;99.90;;;;;;4964493;28;20153;-83
2023/10/31 01:22:22;;;;;;;65.00;10.68;;;10.60;99.90;;;;;;4964609;28;20050;-81
2023/10/31 01:24:48;;;;;;;31.70;7.35;;;10.60;99.90;;;;;;4978147;28;20055;-79
2023/10/31 01:27:16;;;;;;;46.50;6.57;;;10.70;99.90;;;;;;4975533;28;20455;-79
2023/10/31 01:29:42;;;;;;;18.90;4.28;;;8.20;99.90;;;;;;4971137;28;20168;-75
2023/10/31 01:32:08;;;;;;;12.88;3.25;;;10.70;99.90;;;;;;4972187;28;21320;-81
2023/10/31 01:34:33;;;;;;;10.60;2.38;;;10.50;99.90;;;;;;4967859;28;20054;-84
2023/10/31 01:36:59;;;;;;;5.38;1.38;;;10.50;99.90;;;;;;4965842;28;20061;-78
2023/10/31 01:39:27;;;;;;;14.23;1.45;;;10.50;99.90;;;;;;4976281;28;20080;-78
2023/10/31 01:41:54;;;;;;;3.88;1.25;;;10.40;99.90;;;;;;4978984;28;20933;-80
2023/10/31 01:44:20;;;;;;;5.55;1.15;;;10.40;99.90;;;;;;4991372;28;20081;-76
2023/10/31 01:46:46;;;;;;;10.05;2.17;;;10.30;99.90;;;;;;4981504;28;20046;-73
2023/10/31 01:49:13;;;;;;;5.35;1.48;;;10.30;99.90;;;;;;4981592;28;20062;-78
2023/10/31 01:51:43;;;;;;;13.88;2.15;;;10.30;99.90;;;;;;5029045;28;20061;-77
2023/10/31 01:54:10;;;;;;;7.97;1.90;;;10.70;99.90;;;;;;4993209;28;20410;-81
2023/10/31 01:56:36;;;;;;;10.80;2.30;;;10.70;99.90;;;;;;4992119;28;20491;-78
2023/10/31 01:59:04;;;;;;;8.43;2.00;;;10.20;99.90;;;;;;4999839;28;20045;-78
2023/10/31 02:01:31;;;;;;;11.80;1.73;;;10.20;99.90;;;;;;4997004;28;20042;-76
2023/10/31 02:03:58;;;;;;;8.52;1.73;;;10.90;99.90;;;;;;4999408;28;20050;-76
2023/10/31 02:06:24;;;;;;;6.45;1.38;;;10.10;99.90;;;;;;4991388;28;20050;-76
2023/10/31 02:08:50;;;;;;;5.75;1.40;;;12.60;99.90;;;;;;4990611;28;20050;-77
2023/10/31 02:11:16;;;;;;;9.25;1.50;;;10.00;99.90;;;;;;4995446;28;20490;-76
2023/10/31 02:13:42;;;;;;;10.88;2.88;;;10.10;99.90;;;;;;4997691;28;20053;-78
2023/10/31 02:16:07;;;;;;;10.60;1.25;;;10.00;99.90;;;;;;4995555;28;20050;-78
2023/10/31 02:18:33;;;;;;;10.32;1.40;;;10.00;99.90;;;;;;4992621;28;20050;-79
2023/10/31 02:20:59;;;;;;;5.60;1.73;;;10.00;99.90;;;;;;4991236;28;20117;-76
2023/10/31 02:23:25;;;;;;;14.18;2.17;;;10.20;99.90;;;;;;4988997;28;20060;-81
2023/10/31 02:25:51;;;;;;;11.50;1.75;;;9.90;99.90;;;;;;4973674;28;20057;-78
2023/10/31 02:28:16;;;;;;;13.52;2.08;;;9.90;99.90;;;;;;5004908;28;20058;-81
2023/10/31 02:30:43;;;;;;;12.48;1.50;;;9.90;99.90;;;;;;4993546;28;20060;-79
2023/10/31 02:33:08;;;;;;;12.10;1.33;;;9.80;99.90;;;;;;4985340;28;20041;-82
2023/10/31 02:35:34;;;;;;;12.85;1.95;;;10.30;99.90;;;;;;4993256;28;20046;-77
2023/10/31 02:38:00;;;;;;;7.22;1.50;;;9.80;99.90;;;;;;5009215;28;20049;-75
2023/10/31 02:40:26;;;;;;;8.32;1.60;;;9.70;99.90;;;;;;4995284;28;20074;-76
2023/10/31 02:42:51;;;;;;;10.50;1.50;;;9.70;99.90;;;;;;4993401;28;20068;-81
2023/10/31 02:45:18;;;;;;;12.73;1.52;;;9.70;99.90;;;;;;4989085;28;20313;-77
2023/10/31 02:47:44;;;;;;;4.82;0.75;;;9.70;99.90;;;;;;5009085;28;20046;-79
2023/10/31 02:50:12;;;;;;;11.25;1.42;;;10.00;99.90;;;;;;4989833;28;20058;-78
2023/10/31 02:52:37;;;;;;;7.20;1.50;;;9.70;99.90;;;;;;4991288;28;20049;-81
2023/10/31 02:55:03;;;;;;;10.63;1.27;;;9.60;99.90;;;;;;4997351;28;20107;-76
2023/10/31 02:57:29;;;;;;;8.60;1.33;;;9.70;99.90;;;;;;4996808;28;20072;-75
2023/10/31 02:59:55;;;;;;;12.98;1.63;;;9.70;99.90;;;;;;5001139;28;20065;-77
2023/10/31 03:02:21;;;;;;;13.60;2.67;;;10.60;99.90;;;;;;4995432;28;20060;-79
2023/10/31 03:04:47;;;;;;;8.07;1.48;;;9.70;99.90;;;;;;4995332;28;20184;-78
2023/10/31 03:07:12;;;;;;;7.80;2.13;;;10.10;99.90;;;;;;4990495;28;20081;-79
2023/10/31 03:09:38;;;;;;;8.07;1.70;;;10.20;99.90;;;;;;4996971;28;20053;-78
2023/10/31 03:12:04;;;;;;;4.72;1.45;;;9.70;99.90;;;;;;4998954;28;20045;-77
2023/10/31 03:14:30;;;;;;;7.28;1.00;;;9.70;99.90;;;;;;4991929;28;20062;-76
2023/10/31 03:16:56;;;;;;;5.97;1.10;;;10.60;99.90;;;;;;4996267;28;20108;-77
2023/10/31 03:19:22;;;;;;;9.80;1.60;;;9.80;99.90;;;;;;4991231;28;20766;-78
2023/10/31 03:21:47;;;;;;;7.07;1.25;;;10.40;99.90;;;;;;5001513;28;20056;-79
2023/10/31 03:24:17;;;;;;;7.25;1.30;;;9.80;99.90;;;;;;4995277;28;20054;-80
2023/10/31 03:26:42;;;;;;;9.68;2.55;;;10.20;99.90;;;;;;4998211;28;20065;-79
2023/10/31 03:29:08;;;;;;;14.05;2.92;;;9.70;99.90;;;;;;5017955;28;20124;-76
2023/10/31 03:31:34;;;;;;;6.97;1.95;;;9.70;99.90;;;;;;4999232;28;20042;-81
2023/10/31 03:33:59;;;;;;;9.60;2.63;;;9.70;99.90;;;;;;4999463;28;20073;-79
2023/10/31 03:36:25;;;;;;;14.38;4.32;;;9.70;99.90;;;;;;4999554;28;20111;-77
2023/10/31 03:38:51;;;;;;;9.88;3.17;;;9.80;99.90;;;;;;4989683;28;20050;-77
2023/10/31 03:41:16;;;;;;;9.23;3.38;;;9.70;99.90;;;;;;4997350;28;20498;-79
2023/10/31 03:43:45;;;;;;;17.25;4.65;;;9.70;99.90;;;;;;4998264;28;20080;-80
2023/10/31 03:46:11;;;;;;;11.30;4.05;;;9.60;99.90;;;;;;4993590;28;20589;-78
2023/10/31 03:48:37;;;;;;;13.98;5.47;;;9.80;99.90;;;;;;4991347;28;20057;-78
2023/10/31 03:51:03;;;;;;;17.25;5.30;;;9.60;99.90;;;;;;4992765;28;20049;-77
2023/10/31 03:53:28;;;;;;;19.15;7.95;;;9.60;99.90;;;;;;5006913;28;20560;-79
2023/10/31 03:55:54;;;;;;;16.40;6.75;;;9.60;99.90;;;;;;5017550;28;20045;-77
2023/10/31 03:58:20;;;;;;;13.35;4.78;;;9.60;99.90;;;;;;5000889;28;20963;-77
2023/10/31 04:00:45;;;;;;;14.23;5.20;;;9.60;99.90;;;;;;4995053;28;20049;-79
2023/10/31 04:03:11;;;;;;;9.77;3.65;;;9.60;99.90;;;;;;4998852;28;20065;-78
2023/10/31 04:05:37;;;;;;;17.38;6.05;;;9.60;99.90;;;;;;4998493;28;20616;-77
2023/10/31 04:08:03;;;;;;;18.67;6.65;;;9.60;99.90;;;;;;4989189;28;20076;-76
2023/10/31 04:10:29;;;;;;;16.27;5.70;;;9.60;99.90;;;;;;4992371;28;20395;-79
2023/10/31 04:12:54;;;;;;;21.40;6.75;;;9.60;99.90;;;;;;5003912;28;20065;-79
2023/10/31 04:15:20;;;;;;;17.83;6.63;;;9.50;99.90;;;;;;4975878;28;20037;-80
2023/10/31 04:17:46;;;;;;;10.07;3.92;;;9.60;99.90;;;;;;5003667;28;20060;-77
2023/10/31 04:20:12;;;;;;;22.88;6.85;;;9.80;99.90;;;;;;5001075;28;20053;-75
2023/10/31 04:22:38;;;;;;;17.55;6.28;;;9.50;99.90;;;;;;4992257;28;20180;-77
2023/10/31 04:25:05;;;;;;;13.00;4.60;;;7.70;99.90;;;;;;4995737;28;20096;-80
2023/10/31 04:27:30;;;;;;;16.63;5.55;;;9.60;99.90;;;;;;4976932;28;20049;-78
2023/10/31 04:29:56;;;;;;;18.13;5.65;;;9.60;99.90;;;;;;5005875;28;20061;-78
2023/10/31 04:32:22;;;;;;;14.35;5.03;;;9.60;99.90;;;;;;4989055;28;20795;-75
2023/10/31 04:34:48;;;;;;;15.60;4.78;;;10.10;99.90;;;;;;4992424;28;20124;-77
2023/10/31 04:37:14;;;;;;;17.55;4.90;;;9.60;99.90;;;;;;5000268;28;20106;-76
2023/10/31 04:39:39;;;;;;;15.60;4.53;;;9.60;99.90;;;;;;4991081;28;20522;-80
2023/10/31 04:42:06;;;;;;;15.38;4.28;;;9.60;99.90;;;;;;4995224;28;20565;-76
2023/10/31 04:44:32;;;;;;;13.57;4.18;;;9.60;99.90;;;;;;4997702;28;20093;-77
2023/10/31 04:46:57;;;;;;;14.70;4.40;;;9.60;99.90;;;;;;4976744;28;20059;-79
2023/10/31 04:49:23;;;;;;;14.80;4.35;;;9.60;99.90;;;;;;4970498;28;20054;-79
2023/10/31 04:51:52;;;;;;;10.90;3.85;;;9.50;99.90;;;;;;4978647;28;20057;-75
2023/10/31 04:54:17;;;;;;;10.23;3.08;;;9.60;99.90;;;;;;4978238;28;20058;-78
2023/10/31 04:56:43;;;;;;;12.15;3.28;;;10.80;99.90;;;;;;4977311;28;20035;-77
2023/10/31 04:59:09;;;;;;;12.05;2.60;;;9.60;99.90;;;;;;4994177;28;20062;-76
2023/10/31 05:01:35;;;;;;;11.85;3.28;;;9.60;99.90;;;;;;4979547;28;20038;-76
2023/10/31 05:04:01;;;;;;;12.25;3.10;;;9.60;99.90;;;;;;4978503;28;20057;-78
2023/10/31 05:06:26;;;;;;;13.43;3.00;;;9.60;99.90;;;;;;4980367;28;20050;-81
2023/10/31 05:08:52;;;;;;;6.72;1.92;;;9.60;99.90;;;;;;4996288;28;20042;-76
2023/10/31 05:11:18;;;;;;;5.43;2.03;;;9.60;99.90;;;;;;4979886;28;20043;-75
2023/10/31 05:13:50;;;;;;;8.63;2.85;;;10.00;99.90;;;;;;4979898;28;20062;-78
2023/10/31 05:16:15;;;;;;;10.85;2.58;;;9.70;99.90;;;;;;4979555;28;20086;-75
2023/10/31 05:18:41;;;;;;;9.77;2.95;;;9.70;99.90;;;;;;4980036;28;20098;-77
2023/10/31 05:21:07;;;;;;;8.50;2.72;;;10.00;99.90;;;;;;4996585;28;20054;-74
2023/10/31 05:23:32;;;;;;;8.40;1.98;;;9.70;99.90;;;;;;4980301;28;20622;-79
2023/10/31 05:25:58;;;;;;;6.32;2.20;;;9.70;99.90;;;;;;4977461;28;20054;-76
2023/10/31 05:28:24;;;;;;;10.13;1.90;;;9.70;99.90;;;;;;4987374;28;20050;-77
2023/10/31 05:30:50;;;;;;;6.15;1.63;;;9.70;99.90;;;;;;4979993;28;20054;-78
2023/10/31 05:33:16;;;;;;;11.77;2.15;;;9.70;99.90;;;;;;4979459;28;20062;-78
2023/10/31 05:35:42;;;;;;;10.93;1.88;;;9.70;99.90;;;;;;4981814;28;20050;-77
2023/10/31 05:38:08;;;;;;;6.28;1.30;;;7.00;99.90;;;;;;4980179;28;20049;-78
2023/10/31 05:40:35;;;;;;;4.60;0.85;;;9.70;99.90;;;;;;4979511;28;20061;-76
2023/10/31 05:43:02;;;;;;;5.43;1.08;;;9.70;99.90;;;;;;4994675;28;20077;-80
2023/10/31 05:45:28;;;;;;;4.88;1.25;;;9.70;99.90;;;;;;4988314;28;20056;-77
2023/10/31 05:47:54;;;;;;;7.60;1.10;;;9.60;99.90;;;;;;4995025;28;20148;-79
2023/10/31 05:50:19;;;;;;;5.57;1.00;;;9.60;99.90;;;;;;4999238;28;20159;-79
2023/10/31 05:52:47;;;;;;;9.27;1.33;;;9.60;99.90;;;;;;4994566;28;20072;-77
2023/10/31 05:55:13;;;;;;;5.85;1.00;;;9.60;99.90;;;;;;4979602;28;20056;-80
2023/10/31 05:57:39;;;;;;;7.32;1.38;;;9.90;99.90;;;;;;4991278;28;20050;-81
2023/10/31 06:00:07;;;;;;;8.88;1.35;;;10.10;99.90;;;;;;4989042;28;20046;-79
2023/10/31 06:02:33;;;;;;;7.13;1.45;;;9.60;99.90;;;;;;4986275;28;20053;-77
2023/10/31 06:04:59;;;;;;;4.50;1.13;;;9.60;99.90;;;;;;4983148;28;20056;-78
2023/10/31 06:07:24;;;;;;;4.45;1.23;;;9.60;99.90;;;;;;4993319;28;20045;-80
2023/10/31 06:09:50;;;;;;;7.18;1.35;;;9.60;99.90;;;;;;4980849;28;20053;-80
2023/10/31 06:12:16;;;;;;;3.92;1.20;;;9.60;99.90;;;;;;4990621;28;20085;-76
2023/10/31 06:14:45;;;;;;;9.80;1.65;;;9.60;99.90;;;;;;5011938;28;20060;-77
2023/10/31 06:17:11;;;;;;;4.93;0.98;;;9.90;99.90;;;;;;4997997;28;20973;-75
2023/10/31 06:19:37;;;;;;;4.70;1.10;;;9.60;99.90;;;;;;5001245;28;20085;-79
2023/10/31 06:22:03;;;;;;;6.40;1.10;;;9.80;99.90;;;;;;5003346;28;20057;-76
2023/10/31 06:24:29;;;;;;;6.53;1.67;;;9.60;99.90;;;;;;4980208;28;20049;-76
2023/10/31 06:26:55;;;;;;;6.85;1.67;;;9.60;99.90;;;;;;5003844;28;20049;-78
2023/10/31 06:29:21;;;;;;;7.63;2.10;;;9.50;99.90;;;;;;4999573;28;20053;-77
2023/10/31 06:31:47;;;;;;;9.50;2.17;;;9.50;99.90;;;;;;5009283;28;20165;-77
2023/10/31 06:34:13;;;;;;;5.15;1.23;;;10.30;99.90;;;;;;4981138;28;20045;-77
2023/10/31 06:36:39;;;;;;;7.72;1.85;;;9.50;99.90;;;;;;5002942;28;20049;-76
2023/10/31 06:39:04;;;;;;;7.05;2.72;;;9.50;99.90;;;;;;4989994;28;20060;-77
2023/10/31 06:41:30;;;;;;;7.57;2.30;;;9.50;99.90;;;;;;4994021;28;20132;-76
2023/10/31 06:43:56;;;;;;;5.05;1.98;;;9.50;99.90;;;;;;4988390;28;20054;-77
2023/10/31 06:46:22;;;;;;;9.20;2.30;;;9.50;99.90;;;;;;5006295;28;20573;-77
2023/10/31 06:48:47;;;;;;;6.60;1.80;;;9.40;99.90;;;;;;4998888;28;20057;-77
2023/10/31 06:51:13;;;;;;;6.00;1.50;;;9.50;99.90;;;;;;5001192;28;20069;-77
2023/10/31 06:53:39;;;;;;;7.75;1.80;;;12.40;99.90;;;;;;5000499;28;20058;-78
2023/10/31 06:56:05;;;;;;;7.38;2.08;;;9.40;99.90;;;;;;4999446;28;20584;-78
2023/10/31 06:58:30;;;;;;;11.63;2.10;;;11.00;99.90;;;;;;4984420;28;20057;-79
2023/10/31 07:00:58;;;;;;;6.93;2.20;;;9.40;99.90;;;;;;4996218;28;20508;-78
2023/10/31 07:03:24;;;;;;;8.52;2.17;;;9.50;99.90;;;;;;4986509;28;20115;-79
2023/10/31 07:05:49;;;;;;;9.57;3.38;;;9.80;99.90;;;;;;4995519;28;20557;-79
2023/10/31 07:08:18;;;;;;;10.02;3.38;;;10.00;99.90;;;;;;5002307;28;20049;-78
2023/10/31 07:10:44;;;;;;;10.82;3.30;;;9.50;99.90;;;;;;5004741;28;20056;-79
2023/10/31 07:13:10;;;;;;;13.73;5.35;;;9.60;99.90;;;;;;5005384;28;20053;-79
2023/10/31 07:15:38;;;;;;;10.73;4.88;;;9.60;99.90;;;;;;5014516;28;20053;-78
2023/10/31 07:18:07;;;;;;;16.23;6.15;;;9.60;99.90;;;;;;4991180;28;20053;-78
2023/10/31 07:20:35;;;;;;;15.88;6.70;;;10.40;99.90;;;;;;4999754;28;20064;-80
2023/10/31 07:23:01;;;;;;;16.00;6.93;;;9.60;99.90;;;;;;4998525;28;20049;-77
2023/10/31 07:25:27;;;;;;;13.90;6.10;;;9.60;99.90;;;;;;5014198;28;20041;-77
2023/10/31 07:28:00;;;;;;;15.15;7.43;;;10.60;99.90;;;;;;5017576;28;20105;-80
2023/10/31 07:30:26;;;;;;;13.63;6.70;;;9.70;99.90;;;;;;4998471;28;20056;-81
2023/10/31 07:32:52;;;;;;;18.58;7.88;;;9.70;99.90;;;;;;4995018;28;20061;-77
2023/10/31 07:35:19;;;;;;;19.05;7.30;;;9.80;99.90;;;;;;4962261;28;20192;-78
2023/10/31 07:37:45;;;;;;;13.63;6.05;;;9.80;99.90;;;;;;4968859;28;20993;-79
2023/10/31 07:40:14;;;;;;;16.60;7.72;;;9.80;99.90;;;;;;4956497;28;20077;-79
2023/10/31 07:42:40;;;;;;;16.03;7.07;;;9.90;99.90;;;;;;4930222;28;1119581;-79
2023/10/31 07:45:06;;;;;;;22.75;8.65;;;9.90;99.90;;;;;;4977815;28;20797;-78
2023/10/31 07:47:32;;;;;;;17.33;7.53;;;9.90;99.90;;;;;;4950522;28;20810;-79
2023/10/31 07:49:59;;;;;;;20.23;10.38;;;9.90;99.90;;;;;;4961479;28;20061;-75
2023/10/31 07:52:24;;;;;;;15.60;6.38;;;10.00;99.90;;;;;;4962137;28;20093;-80
2023/10/31 07:54:50;;;;;;;15.18;6.53;;;10.30;99.90;;;;;;4973987;28;20652;-82
2023/10/31 07:57:16;;;;;;;24.38;7.82;;;10.00;99.90;;;;;;4983683;28;20062;-78
2023/10/31 07:59:41;;;;;;;23.73;8.20;;;10.30;99.90;;;;;;4954338;28;20112;-80
2023/10/31 08:02:28;;;;;;;21.08;8.48;;;10.00;99.90;;;;;;4960216;28;20069;-78
2023/10/31 08:04:56;;;;;;;20.83;8.32;;;10.00;99.90;;;;;;4984207;28;20135;-81
2023/10/31 08:07:23;;;;;;;17.90;7.68;;;10.20;99.90;;;;;;4964300;28;20074;-78
2023/10/31 08:09:49;;;;;;;16.27;7.10;;;10.30;99.90;;;;;;4936661;28;20057;-82
2023/10/31 08:12:14;;;;;;;14.30;7.00;;;10.10;99.90;;;;;;4962288;28;20060;-81
2023/10/31 08:14:40;;;;;;;17.73;7.20;;;10.70;99.90;;;;;;4975733;28;20061;-77
2023/10/31 08:17:06;;;;;;;19.30;6.28;;;10.20;99.90;;;;;;4984909;28;20838;-76
2023/10/31 08:19:32;;;;;;;11.48;5.35;;;10.60;99.90;;;;;;4997091;28;20053;-80
2023/10/31 08:21:57;;;;;;;11.43;4.63;;;10.20;99.90;;;;;;4993440;28;20474;-81
2023/10/31 08:24:23;;;;;;;13.23;4.05;;;10.30;99.90;;;;;;5002386;28;20053;-77
2023/10/31 08:26:51;;;;;;;8.63;3.00;;;10.40;99.90;;;;;;4998561;28;20056;-79
2023/10/31 08:29:17;;;;;;;12.20;3.53;;;10.30;99.90;;;;;;4989225;28;20601;-80
2023/10/31 08:31:43;;;;;;;10.75;2.95;;;10.40;99.90;;;;;;4997813;28;20136;-79
2023/10/31 08:34:08;;;;;;;8.80;2.35;;;10.40;99.90;;;;;;5001964;28;20058;-75
2023/10/31 08:36:35;;;;;;;10.52;2.60;;;10.50;99.90;;;;;;4987399;28;20124;-81
2023/10/31 08:39:03;;;;;;;7.88;2.60;;;10.60;99.90;;;;;;4999716;28;20821;-80
2023/10/31 08:41:31;;;;;;;8.10;1.95;;;10.60;99.90;;;;;;5000939;28;20445;-79
2023/10/31 08:43:58;;;;;;;9.38;1.73;;;10.60;99.90;;;;;;5003224;28;20045;-81
2023/10/31 08:46:24;;;;;;;6.43;1.17;;;10.70;99.90;;;;;;5002163;28;20060;-76
2023/10/31 08:48:50;;;;;;;5.90;1.15;;;10.70;99.90;;;;;;4976129;28;20061;-77
2023/10/31 08:51:16;;;;;;;6.50;1.05;;;10.70;99.90;;;;;;5002748;28;20057;-84
2023/10/31 08:53:41;;;;;;;7.93;0.98;;;10.70;99.90;;;;;;4990531;28;20077;-79
2023/10/31 08:56:07;;;;;;;6.22;1.10;;;10.70;99.90;;;;;;4996269;28;20147;-75
2023/10/31 08:58:33;;;;;;;4.10;0.73;;;10.80;99.90;;;;;;4994011;28;20907;-82
2023/10/31 09:00:59;;;;;;;3.42;1.08;;;10.80;99.90;;;;;;4986987;28;20061;-77
2023/10/31 09:03:27;;;;;;;5.40;0.65;;;10.80;99.90;;;;;;4993921;28;20115;-75
2023/10/31 09:08:39;;;;;;;5.20;1.10;;;10.80;99.90;;;;;;4984980;28;20071;-76
2023/10/31 09:11:05;;;;;;;4.63;0.60;;;10.80;99.90;;;;;;4992840;28;20045;-78
2023/10/31 09:13:32;;;;;;;2.67;0.47;;;10.90;99.90;;;;;;5001155;28;20115;-77
2023/10/31 09:16:01;;;;;;;2.42;0.40;;;10.90;99.90;;;;;;4998789;28;20046;-75
2023/10/31 09:18:27;;;;;;;7.30;0.50;;;10.90;99.90;;;;;;5010951;28;20076;-76
2023/10/31 09:20:53;;;;;;;6.82;0.30;;;11.00;99.90;;;;;;4992526;28;20139;-75
2023/10/31 09:23:19;;;;;;;2.40;0.30;;;11.00;99.90;;;;;;4994070;28;20410;-74
2023/10/31 09:25:45;;;;;;;1.77;0.40;;;11.00;99.90;;;;;;4998591;28;20513;-74
2023/10/31 09:30:39;;;;;;;3.22;0.30;;;11.10;99.90;;;;;;5026612;23;20042;-77
2023/10/31 09:33:05;;;;;;;1.63;0.25;;;11.50;99.90;;;;;;4984472;28;20130;-77
2023/10/31 09:35:31;;;;;;;5.03;0.50;;;11.00;99.90;;;;;;5005813;28;20102;-77
2023/10/31 09:37:57;;;;;;;5.95;0.93;;;11.00;99.90;;;;;;5004882;28;20060;-77
2023/10/31 09:40:23;;;;;;;3.38;0.30;;;11.10;99.90;;;;;;5008994;28;20044;-74
2023/10/31 09:42:49;;;;;;;2.08;0.85;;;11.10;99.90;;;;;;4985359;28;20054;-76
2023/10/31 09:45:16;;;;;;;4.60;0.30;;;11.20;99.90;;;;;;5010218;23;20140;-76
2023/10/31 09:47:42;;;;;;;5.53;0.28;;;11.20;99.90;;;;;;5014044;28;20069;-74
2023/10/31 09:50:11;;;;;;;2.30;0.30;;;11.30;99.90;;;;;;4996184;28;20057;-76
2023/10/31 09:52:55;;;;;;;9.95;0.60;;;11.30;99.90;;;;;;4964657;28;20058;-74
2023/10/31 09:55:22;;;;;;;4.72;0.40;;;11.60;99.90;;;;;;5005015;28;20046;-74
2023/10/31 09:57:48;;;;;;;9.93;0.57;;;11.30;99.90;;;;;;4991009;28;20045;-74
2023/10/31 10:00:14;;;;;;;3.80;0.20;;;11.40;99.90;;;;;;4994147;28;20050;-76
2023/10/31 10:02:40;;;;;;;8.75;0.43;;;11.30;99.90;;;;;;4965415;28;20049;-73
2023/10/31 10:05:08;;;;;;;14.98;0.52;;;11.30;99.90;;;;;;4984623;28;20080;-73
2023/10/31 10:07:37;;;;;;;6.13;0.30;;;11.30;99.90;;;;;;4996729;28;20062;-73
2023/10/31 10:10:04;;;;;;;9.27;0.50;;;11.30;99.90;;;;;;4998773;28;20057;-74
2023/10/31 10:12:29;;;;;;;12.38;0.50;;;11.40;99.90;;;;;;5005075;28;20054;-75
2023/10/31 10:15:00;;;;;;;5.50;0.30;;;11.50;99.90;;;;;;4999348;28;20064;-73
2023/10/31 10:17:26;;;;;;;7.10;0.52;;;11.60;99.90;;;;;;4984849;28;20124;-73
2023/10/31 10:20:12;;;;;;;8.18;0.40;;;11.70;99.90;;;;;;4984477;28;20547;-73
2023/10/31 10:22:45;;;;;;;5.97;0.30;;;11.80;99.90;;;;;;4971131;28;20795;-74
2023/10/31 10:25:17;;;;;;;12.32;1.52;;;11.90;99.90;;;;;;4998843;28;20077;-73
2023/10/31 10:27:47;;;;;;;6.80;0.30;;;11.80;99.90;;;;;;4975050;28;20045;-73
2023/10/31 10:30:14;;;;;;;7.43;0.40;;;11.70;99.90;;;;;;4987128;28;20050;-72
2023/10/31 10:32:40;;;;;;;9.73;0.30;;;11.70;99.90;;;;;;4996561;28;20089;-74
2023/10/31 10:35:07;;;;;;;5.78;0.98;;;11.80;99.90;;;;;;4988047;28;20479;-73
2023/10/31 10:37:37;;;;;;;4.47;0.22;;;11.90;99.90;;;;;;4970635;28;20185;-74
2023/10/31 10:40:07;;;;;;;8.20;0.38;;;12.00;99.90;;;;;;4986051;28;20054;-73
2023/10/31 10:42:40;;;;;;;9.82;0.80;;;12.00;99.90;;;;;;4978289;28;20053;-75
2023/10/31 10:45:08;;;;;;;9.38;0.95;;;12.20;99.90;;;;;;4983242;28;20306;-74
2023/10/31 10:47:37;;;;;;;10.32;0.70;;;12.30;99.90;;;;;;4993915;28;20145;-74
2023/10/31 10:50:11;;;;;;;6.00;0.35;;;12.30;99.90;;;;;;4983064;28;20445;-74
2023/10/31 10:53:00;;;;;;;5.00;0.28;;;12.20;99.90;;;;;;4975696;28;20243;-74
2023/10/31 10:55:27;;;;;;;4.78;0.20;;;12.20;99.90;;;;;;4987676;28;20089;-75
2023/10/31 10:58:04;;;;;;;6.13;0.30;;;12.20;99.90;;;;;;4967849;28;20129;-74
2023/10/31 11:00:30;;;;;;;5.60;0.30;;;12.20;99.90;;;;;;4991896;28;20047;-74
2023/10/31 11:02:56;;;;;;;6.15;0.20;;;12.70;99.90;;;;;;4990932;28;20050;-73
2023/10/31 11:05:24;;;;;;;6.00;0.40;;;12.20;99.90;;;;;;4993625;28;20514;-73
2023/10/31 11:07:51;;;;;;;8.45;2.35;;;12.20;99.90;;;;;;4986987;28;20135;-75
2023/10/31 11:10:18;;;;;;;8.20;0.32;;;12.40;99.90;;;;;;4995295;28;20851;-75
2023/10/31 11:12:44;;;;;;;10.52;0.30;;;12.60;99.90;;;;;;4977462;28;20062;-75
2023/10/31 11:15:14;;;;;;;6.30;0.20;;;12.70;99.90;;;;;;4975723;28;20804;-74
2023/10/31 11:17:42;;;;;;;4.28;0.20;;;12.70;99.90;;;;;;5001133;28;20042;-76
2023/10/31 11:20:10;;;;;;;3.08;0.10;;;12.60;99.90;;;;;;4994206;28;20056;-74
2023/10/31 11:22:48;;;;;;;10.40;0.30;;;12.50;99.90;;;;;;4985235;28;20065;-74
2023/10/31 11:25:23;;;;;;;5.28;0.45;;;12.60;99.90;;;;;;4965125;28;20827;-73
2023/10/31 11:27:53;;;;;;;7.47;0.50;;;12.50;99.90;;;;;;4983740;28;20038;-74
2023/10/31 11:30:25;;;;;;;4.40;0.20;;;12.50;99.90;;;;;;4997483;28;20060;-74
2023/10/31 11:33:01;;;;;;;5.53;0.40;;;12.50;99.90;;;;;;4995146;28;20050;-75
2023/10/31 11:35:30;;;;;;;5.57;0.20;;;12.50;99.90;;;;;;4988197;28;20655;-75
2023/10/31 11:38:10;;;;;;;7.15;0.68;;;12.40;99.90;;;;;;5002489;28;20052;-74
2023/10/31 11:41:00;;;;;;;5.00;0.20;;;12.30;99.90;;;;;;4998909;28;20108;-73
2023/10/31 11:43:26;;;;;;;7.30;0.22;;;12.20;99.90;;;;;;4983740;28;20711;-74
2023/10/31 11:45:54;;;;;;;8.57;0.73;;;12.20;99.90;;;;;;4986582;28;20126;-74
2023/10/31 11:48:47;;;;;;;6.88;0.20;;;12.20;99.90;;;;;;4987538;28;20060;-73
2023/10/31 11:51:16;;;;;;;3.58;0.20;;;12.30;99.90;;;;;;4992774;28;20598;-73
2023/10/31 11:53:43;;;;;;;5.38;0.38;;;12.30;99.90;;;;;;4986269;28;20049;-73
2023/10/31 11:56:12;;;;;;;6.93;0.57;;;12.30;99.90;;;;;;5008522;28;20050;-73
2023/10/31 11:58:38;;;;;;;2.20;0.22;;;12.60;99.90;;;;;;5004658;28;20484;-73
2023/10/31 12:01:06;;;;;;;8.48;0.50;;;12.30;99.90;;;;;;4981515;28;20136;-73
2023/10/31 12:03:47;;;;;;;5.00;0.30;;;12.30;99.90;;;;;;4986798;28;20053;-73
2023/10/31 12:06:14;;;;;;;5.55;0.43;;;12.20;99.90;;;;;;5010713;28;20050;-76
2023/10/31 12:08:42;;;;;;;7.60;0.30;;;12.10;99.90;;;;;;5004589;28;20046;-76
2023/10/31 12:11:08;;;;;;;6.70;0.40;;;12.10;99.90;;;;;;4980175;28;20046;-73
2023/10/31 12:13:39;;;;;;;8.50;0.30;;;12.10;99.90;;;;;;5003380;28;20052;-73
2023/10/31 12:16:09;;;;;;;6.35;0.30;;;12.10;99.90;;;;;;4982990;28;20045;-76
2023/10/31 12:18:36;;;;;;;9.05;1.85;;;12.20;99.90;;;;;;4991069;28;20449;-74
2023/10/31 12:21:02;;;;;;;9.35;0.88;;;12.20;99.90;;;;;;5006709;28;20054;-72
2023/10/31 12:23:31;;;;;;;5.85;0.30;;;12.20;99.90;;;;;;5001338;28;20100;-73
2023/10/31 12:25:57;;;;;;;9.73;1.30;;;12.20;99.90;;;;;;4996422;23;21017;-75
2023/10/31 12:28:24;;;;;;;3.22;0.28;;;12.30;99.90;;;;;;4963197;28;20058;-73
2023/10/31 12:30:54;;;;;;;7.25;0.40;;;12.30;99.90;;;;;;4972684;28;20064;-75
2023/10/31 12:33:21;;;;;;;2.78;0.20;;;12.40;99.90;;;;;;4969104;28;20053;-75
2023/10/31 12:35:51;;;;;;;8.85;0.38;;;12.40;99.90;;;;;;4966041;28;20061;-74
2023/10/31 12:38:18;;;;;;;8.35;0.50;;;12.40;99.90;;;;;;4973113;28;20125;-73
2023/10/31 12:40:44;;;;;;;4.07;0.28;;;12.40;99.90;;;;;;4969855;28;20050;-74
2023/10/31 12:43:10;;;;;;;3.55;0.30;;;12.50;99.90;;;;;;4965806;28;20418;-74
2023/10/31 12:45:37;;;;;;;5.18;0.40;;;12.60;99.90;;;;;;4985274;28;20050;-73
2023/10/31 12:48:06;;;;;;;3.13;0.30;;;12.60;99.90;;;;;;4988919;28;20053;-74
2023/10/31 12:50:33;;;;;;;6.18;0.45;;;12.60;99.90;;;;;;4958926;28;20061;-73